createdAt,value
2022-09-02T00:00:32.621Z,95963.84
2022-09-02T00:05:37.493Z,95957.13
2022-09-02T00:10:42.885Z,95954.69
2022-09-02T00:15:45.934Z,95953.03
2022-09-02T00:20:50.336Z,95949.84
2022-09-02T00:25:53.737Z,95946.44
2022-09-02T00:30:56.532Z,95945.28
2022-09-02T00:36:02.250Z,95945.63
2022-09-02T00:41:07.725Z,95942.41
2022-09-02T00:46:12.250Z,95936.56
2022-09-02T00:51:17.453Z,95944.34
2022-09-02T00:56:24.552Z,95946.81
2022-09-02T01:01:28.070Z,95937.81
2022-09-02T01:06:33.670Z,95939.16
2022-09-02T01:11:42.508Z,95940.66
2022-09-02T01:16:49.568Z,95933.13
2022-09-02T01:21:55.085Z,95938.25
2022-09-02T01:26:59.448Z,95937.44
2022-09-02T01:32:02.517Z,95948.25
2022-09-02T01:37:07.105Z,95937.47
2022-09-02T01:42:10.253Z,95944.00
2022-09-02T01:47:13.791Z,95932.38
2022-09-02T01:52:19.881Z,95925.34
2022-09-02T01:57:24.589Z,95919.13
2022-09-02T02:02:27.462Z,95931.41
2022-09-02T02:07:31.984Z,95926.00
2022-09-02T02:12:34.947Z,95917.84
2022-09-02T02:17:38.082Z,95925.06
2022-09-02T02:22:42.533Z,95920.16
2022-09-02T02:27:46.108Z,95927.03
2022-09-02T02:32:49.179Z,95917.53
2022-09-02T02:37:53.808Z,95922.59
2022-09-02T02:42:56.627Z,95922.59
2022-09-02T02:47:59.524Z,95920.16
2022-09-02T02:53:03.757Z,95921.47
2022-09-02T02:58:07.452Z,95920.84
2022-09-02T03:03:12.032Z,95914.28
2022-09-02T03:08:18.607Z,95901.56
2022-09-02T03:13:22.606Z,95913.66
2022-09-02T03:18:25.443Z,95905.31
2022-09-02T03:23:29.575Z,95904.19
2022-09-02T03:28:33.626Z,95900.59
2022-09-02T03:33:36.452Z,95897.66
2022-09-02T03:38:40.600Z,95896.34
2022-09-02T03:43:43.357Z,95894.72
2022-09-02T03:48:46.145Z,95906.00
2022-09-02T03:53:50.435Z,95895.72
2022-09-02T03:58:54.131Z,95901.78
2022-09-02T04:03:57.559Z,95894.72
2022-09-02T04:09:02.820Z,95894.41
2022-09-02T04:14:05.616Z,95895.09
2022-09-02T04:19:09.502Z,95886.56
2022-09-02T04:24:14.010Z,95888.53
2022-09-02T04:29:17.988Z,95886.91
2022-09-02T04:34:21.822Z,95898.72
2022-09-02T04:39:25.979Z,95886.25
2022-09-02T04:44:28.765Z,95895.75
2022-09-02T04:49:33.227Z,95891.16
2022-09-02T04:54:37.714Z,95896.88
2022-09-02T04:59:40.548Z,95898.38
2022-09-02T05:04:43.337Z,95898.69
2022-09-02T05:09:47.513Z,95901.81
2022-09-02T05:14:53.437Z,95907.53
2022-09-02T05:19:56.231Z,95913.09
2022-09-02T05:25:00.365Z,95908.66
2022-09-02T05:30:05.184Z,95911.78
2022-09-02T05:35:08.907Z,95914.06
2022-09-02T05:40:14.959Z,95914.72
2022-09-02T05:45:18.578Z,95903.91
2022-09-02T05:50:22.090Z,95899.66
2022-09-02T05:55:26.398Z,95895.03
2022-09-02T06:00:30.365Z,95905.50
2022-09-02T06:05:33.117Z,95901.06
2022-09-02T06:10:42.308Z,95901.22
2022-09-02T06:15:45.271Z,95892.00
2022-09-02T06:20:48.967Z,95884.38
2022-09-02T06:25:53.144Z,95892.81
2022-09-02T06:30:55.971Z,95887.81
2022-09-02T06:35:58.821Z,95884.34
2022-09-02T06:41:02.963Z,95907.88
2022-09-02T06:46:06.099Z,95896.81
2022-09-02T06:51:09.185Z,95886.91
2022-09-02T06:56:13.920Z,95877.56
2022-09-02T07:01:21.155Z,95875.50
2022-09-02T07:06:24.653Z,95871.44
2022-09-02T07:11:28.889Z,95883.16
2022-09-02T07:16:34.865Z,95891.44
2022-09-02T07:21:38.104Z,95886.66
2022-09-02T07:26:43.147Z,95882.81
2022-09-02T07:31:48.627Z,95888.50
2022-09-02T07:36:52.651Z,95892.75
2022-09-02T07:41:56.793Z,95896.09
2022-09-02T07:46:59.599Z,95891.78
2022-09-02T07:52:02.530Z,95888.19
2022-09-02T07:57:07.347Z,95886.81
2022-09-02T08:02:10.572Z,95881.72
2022-09-02T08:07:13.645Z,95874.16
2022-09-02T08:12:20.232Z,95884.31
2022-09-02T08:17:25.100Z,95896.22
2022-09-02T08:27:43.160Z,95886.72
2022-09-02T08:32:45.973Z,95887.09
2022-09-02T08:37:48.795Z,95886.78
2022-09-02T08:42:55.575Z,95891.66
2022-09-02T08:48:08.181Z,95896.53
2022-09-02T08:53:17.289Z,95881.78
2022-09-02T08:58:24.842Z,95870.44
2022-09-02T09:03:31.575Z,95873.94
2022-09-02T09:08:42.884Z,95875.38
2022-09-02T09:14:17.465Z,95878.84
2022-09-02T09:19:32.549Z,95880.22
2022-09-02T09:24:39.516Z,95877.72
2022-09-02T09:29:44.497Z,95874.28
2022-09-02T09:35:01.525Z,95860.56
2022-09-02T09:40:24.291Z,95869.78
2022-09-02T09:45:32.378Z,95868.66
2022-09-02T09:50:35.680Z,95859.78
2022-09-02T09:55:52.270Z,95862.31
2022-09-02T10:01:00.691Z,95868.13
2022-09-02T10:06:20.038Z,95863.44
2022-09-02T10:11:26.824Z,95846.84
2022-09-02T10:16:49.887Z,95830.13
2022-09-02T10:22:23.464Z,95852.66
2022-09-02T10:27:51.102Z,95852.97
2022-09-02T10:33:17.197Z,95847.97
2022-09-02T10:38:37.167Z,95843.72
2022-09-02T10:43:59.221Z,95830.97
2022-09-02T10:49:13.341Z,95810.69
2022-09-02T10:54:32.012Z,95822.75
2022-09-02T10:59:40.381Z,95822.81
2022-09-02T11:04:55.217Z,95816.94
2022-09-02T11:10:04.307Z,95808.41
2022-09-02T11:15:16.520Z,95820.31
2022-09-02T11:20:31.459Z,95806.09
2022-09-02T11:25:41.145Z,95800.03
2022-09-02T11:35:55.886Z,95792.75
2022-09-02T11:41:40.511Z,95788.69
2022-09-02T11:47:08.209Z,95792.28
2022-09-02T11:52:26.097Z,95775.94
2022-09-02T11:57:29.104Z,95787.38
2022-09-02T12:02:43.267Z,95778.06
2022-09-02T12:07:50.669Z,95770.59
2022-09-02T12:13:09.575Z,95776.97
2022-09-02T12:18:31.100Z,95776.63
2022-09-02T12:24:17.178Z,95765.53
2022-09-02T12:29:34.181Z,95772.69
2022-09-02T12:34:56.648Z,95771.13
2022-09-02T12:40:13.152Z,95767.25
2022-09-02T12:45:29.088Z,95766.63
2022-09-02T12:50:36.126Z,95774.28
2022-09-02T12:55:41.057Z,95758.34
2022-09-02T13:00:58.770Z,95755.22
2022-09-02T13:06:08.074Z,95755.22
2022-09-02T13:12:02.458Z,95746.13
2022-09-02T13:23:03.936Z,95733.06
2022-09-02T13:28:39.492Z,95730.44
2022-09-02T13:33:44.527Z,95707.88
2022-09-02T13:38:47.359Z,95705.66
2022-09-02T13:44:06.989Z,95700.22
2022-09-02T13:49:23.175Z,95697.50
2022-09-02T13:54:32.438Z,95698.38
2022-09-02T13:59:38.370Z,95687.53
2022-09-02T14:04:42.595Z,95683.34
2022-09-02T14:09:46.624Z,95681.13
2022-09-02T14:14:49.916Z,95684.75
2022-09-02T14:20:10.304Z,95689.19
2022-09-02T14:25:15.670Z,95686.03
2022-09-02T14:30:30.729Z,95659.66
2022-09-02T14:35:34.856Z,95659.69
2022-09-02T14:40:43.015Z,95660.09
2022-09-02T14:45:49.887Z,95670.69
2022-09-02T14:51:02.821Z,95664.00
2022-09-02T14:56:07.344Z,95647.47
2022-09-02T15:01:10.207Z,95653.19
2022-09-02T15:06:15.334Z,95654.69
2022-09-02T15:11:21.144Z,95651.94
2022-09-02T15:16:23.970Z,95635.47
2022-09-02T15:21:28.112Z,95636.03
2022-09-02T15:26:30.960Z,95633.59
2022-09-02T15:31:33.776Z,95647.94
2022-09-02T15:36:37.957Z,95649.88
2022-09-02T15:41:44.676Z,95658.06
2022-09-02T15:46:47.472Z,95661.13
2022-09-02T15:51:54.977Z,95647.66
2022-09-02T15:56:59.640Z,95636.03
2022-09-02T16:02:02.538Z,95640.69
2022-09-02T16:07:06.915Z,95647.13
2022-09-02T16:12:11.122Z,95638.13
2022-09-02T16:17:13.896Z,95631.56
2022-09-02T16:22:18.095Z,95638.47
2022-09-02T16:27:40.879Z,95654.28
2022-09-02T16:32:43.656Z,95645.53
2022-09-02T16:37:47.945Z,95637.16
2022-09-02T16:42:51.106Z,95640.88
2022-09-02T16:47:53.898Z,95642.13
2022-09-02T16:52:58.047Z,95652.53
2022-09-02T16:58:02.889Z,95649.81
2022-09-02T17:03:05.825Z,95654.22
2022-09-02T17:08:10.021Z,95635.72
2022-09-02T17:13:12.954Z,95637.91
2022-09-02T17:18:15.722Z,95635.75
2022-09-02T17:23:21.159Z,95641.50
2022-09-02T17:28:27.099Z,95618.56
2022-09-02T17:33:30.168Z,95611.47
2022-09-02T17:38:34.302Z,95613.22
2022-09-02T17:43:38.591Z,95605.63
2022-09-02T17:49:05.760Z,95594.03
2022-09-02T17:54:07.016Z,95592.00
2022-09-02T17:59:28.189Z,95591.47
2022-09-02T18:04:53.471Z,95581.06
2022-09-02T18:09:57.992Z,95606.72
2022-09-02T18:15:02.939Z,95605.97
2022-09-02T18:20:10.921Z,95614.03
2022-09-02T18:25:29.242Z,95628.78
2022-09-02T18:30:39.731Z,95631.94
2022-09-02T18:35:51.017Z,95637.75
2022-09-02T18:41:07.181Z,95640.63
2022-09-02T18:46:13.625Z,95656.13
2022-09-02T18:51:25.338Z,95654.50
2022-09-02T18:56:34.478Z,95666.78
2022-09-02T19:01:44.725Z,95666.63
2022-09-02T19:06:48.472Z,95664.91
2022-09-02T19:11:52.603Z,95671.56
2022-09-02T19:16:57.662Z,95666.69
2022-09-02T19:22:04.745Z,95682.28
2022-09-02T19:27:13.382Z,95696.59
2022-09-02T19:32:16.410Z,95694.78
2022-09-02T19:37:19.648Z,95699.97
2022-09-02T19:42:24.410Z,95713.06
2022-09-02T19:52:50.409Z,95730.13
2022-09-02T19:57:54.533Z,95733.41
2022-09-02T20:02:57.390Z,95727.88
2022-09-02T20:08:00.485Z,95731.38
2022-09-02T20:13:05.177Z,95750.91
2022-09-02T20:18:12.442Z,95738.72
2022-09-02T20:23:17.506Z,95751.50
2022-09-02T20:28:26.117Z,95755.00
2022-09-02T20:33:38.848Z,95756.03
2022-09-02T20:38:58.198Z,95750.94
2022-09-02T20:44:28.017Z,95740.78
2022-09-02T20:49:46.006Z,95735.31
2022-09-02T20:54:56.602Z,95740.78
2022-09-02T21:00:07.814Z,95757.47
2022-09-02T21:05:15.517Z,95755.66
2022-09-02T21:10:30.361Z,95757.66
2022-09-02T21:15:40.225Z,95770.88
2022-09-02T21:20:50.400Z,95781.66
2022-09-02T21:25:56.745Z,95793.25
2022-09-02T21:31:06.604Z,95803.00
2022-09-02T21:36:14.589Z,95796.47
2022-09-02T21:41:31.620Z,95798.50
2022-09-02T21:46:45.820Z,95805.56
2022-09-02T21:51:53.902Z,95796.84
2022-09-02T21:57:14.282Z,95796.66
2022-09-02T22:02:25.708Z,95812.72
2022-09-02T22:07:34.399Z,95804.59
2022-09-02T22:12:39.726Z,95799.09
2022-09-02T22:17:49.145Z,95807.44
2022-09-02T22:22:55.755Z,95809.88
2022-09-02T22:28:06.576Z,95820.88
2022-09-02T22:33:15.388Z,95821.22
2022-09-02T22:38:25.547Z,95821.63
2022-09-02T22:43:41.433Z,95821.63
2022-09-02T22:49:09.631Z,95824.28
2022-09-02T22:54:12.435Z,95835.25
2022-09-02T22:59:31.086Z,95848.25
2022-09-02T23:04:48.383Z,95848.63
2022-09-02T23:09:57.214Z,95831.97
2022-09-02T23:15:15.515Z,95805.97
2022-09-02T23:20:28.191Z,95806.81
2022-09-02T23:25:43.294Z,95809.47
2022-09-02T23:31:01.100Z,95825.28
2022-09-02T23:36:13.960Z,95820.63
2022-09-02T23:41:17.921Z,95818.00
2022-09-02T23:46:32.059Z,95805.00
2022-09-02T23:51:48.662Z,95824.28
2022-09-02T23:57:02.038Z,95826.47
